»·PEaware :: N3021C KSBD-KEMT

N3021C :: KSBD-KEMT

FLIGHT INFORMATION

Flight Status: Arrived
Operator: Privately registered:
United States
More flights under this callsign
Pilot: Mark B. (9455)
Aircraft: CESSNA 172 SKYHAWK
(C172)
More flights by this aircraft type
Origin: KSBD San Bernardino Intl
United States
Destination: KEMT El Monte
United States
More flights between these airports :: More routes between these airports
Route: PDZ PDZ270R V363 POM
File this flight plan on PilotEdge
Remarks:
Altitude:
(Current/Filed)
6,000ft
Speed:
(Current/Filed)
115kts
Departed: 24-Jul-16 06:37 PM
Arrived: 24-Jul-16 07:10 PM
Distance/Time
Traveled:
40nm/0:33
Distance/Time
To Go:
Arrived

Flight Plot

Page will automatically refresh every two minutes.


Map Options




Map Legend


Flown Route
Filed Route
Departure Airport
Arrival Airport
Navaid (VOR, NDB)
Fix

Horizontal Profiles

Position Reports

Time Latitude Longitude Heading Altitude Ground
Speed
24-Jul-16 17:46 34.102143 -117.224832 270 1146ft 0kts
24-Jul-16 17:47 34.102143 -117.224832 270 1146ft 0kts
24-Jul-16 17:48 34.102143 -117.224832 270 1146ft 0kts
24-Jul-16 17:49 34.102143 -117.224832 270 1146ft 0kts
24-Jul-16 17:50 34.102143 -117.224832 270 1146ft 0kts
24-Jul-16 17:51 34.102143 -117.224832 270 1146ft 0kts
24-Jul-16 17:52 34.102143 -117.224832 270 1146ft 0kts
24-Jul-16 17:53 34.102143 -117.224832 270 1146ft 0kts
24-Jul-16 17:54 34.102143 -117.224832 270 1146ft 0kts
24-Jul-16 17:55 34.102143 -117.224832 270 1146ft 0kts
24-Jul-16 17:56 34.102143 -117.224832 270 1146ft 0kts
24-Jul-16 17:57 34.102143 -117.224832 270 1146ft 0kts
24-Jul-16 17:58 34.102143 -117.224832 270 1146ft 0kts
24-Jul-16 17:59 34.102143 -117.224832 270 1146ft 0kts
24-Jul-16 18:00 34.102143 -117.224832 270 1146ft 0kts
24-Jul-16 18:01 34.102143 -117.224832 270 1146ft 0kts
24-Jul-16 18:02 34.102143 -117.224832 270 1146ft 0kts
24-Jul-16 18:03 34.102143 -117.224832 270 1146ft 0kts
24-Jul-16 18:04 34.102143 -117.224832 270 1146ft 0kts
24-Jul-16 18:05 34.102143 -117.224832 270 1146ft 0kts
24-Jul-16 18:06 34.102143 -117.224832 270 1146ft 0kts
24-Jul-16 18:07 34.102143 -117.224832 270 1146ft 0kts
24-Jul-16 18:08 34.102143 -117.224832 270 1146ft 0kts
24-Jul-16 18:09 34.102143 -117.224832 270 1146ft 0kts
24-Jul-16 18:10 34.102143 -117.224832 270 1146ft 0kts
24-Jul-16 18:11 34.102143 -117.224832 270 1146ft 0kts
24-Jul-16 18:12 34.102143 -117.224832 270 1146ft 0kts
24-Jul-16 18:13 34.102143 -117.224832 270 1146ft 0kts
24-Jul-16 18:14 34.102143 -117.224832 270 1146ft 0kts
24-Jul-16 18:15 34.102143 -117.224832 270 1146ft 0kts
24-Jul-16 18:16 34.102143 -117.224832 270 1146ft 0kts
24-Jul-16 18:17 34.102143 -117.224832 270 1146ft 0kts
24-Jul-16 18:18 34.102143 -117.224832 270 1146ft 0kts
24-Jul-16 18:19 34.102143 -117.224832 270 1146ft 0kts
24-Jul-16 18:20 34.102143 -117.224832 270 1146ft 0kts
24-Jul-16 18:21 34.102143 -117.224832 270 1146ft 0kts
24-Jul-16 18:22 34.102143 -117.224832 270 1146ft 0kts
24-Jul-16 18:23 34.102143 -117.224832 270 1146ft 0kts
24-Jul-16 18:24 34.102074 -117.220833 95 1156ft 19kts
24-Jul-16 18:25 34.100869 -117.219868 161 1159ft 0kts
24-Jul-16 18:26 34.100869 -117.219868 161 1159ft 0kts
24-Jul-16 18:27 34.100869 -117.219868 161 1159ft 0kts
24-Jul-16 18:28 34.100869 -117.219868 161 1159ft 0kts
24-Jul-16 18:29 34.100869 -117.219868 161 1159ft 0kts
24-Jul-16 18:30 34.100869 -117.219868 161 1159ft 0kts
24-Jul-16 18:31 34.100869 -117.219868 161 1159ft 0kts
24-Jul-16 18:32 34.097209 -117.228286 247 1252ft 87kts
24-Jul-16 18:33 34.085552 -117.252020 230 2376ft 83kts
24-Jul-16 18:34 34.072142 -117.275209 239 3397ft 85kts
24-Jul-16 18:35 34.057858 -117.297770 235 4373ft 85kts
24-Jul-16 18:36 34.043021 -117.320788 231 5275ft 88kts
24-Jul-16 18:37 34.028495 -117.345602 232 5905ft 105kts
24-Jul-16 18:38 34.012153 -117.375817 238 6075ft 110kts
24-Jul-16 18:39 33.996138 -117.408842 247 6032ft 117kts
24-Jul-16 18:40 33.977896 -117.440479 223 6028ft 116kts
24-Jul-16 18:41 33.958168 -117.470936 233 6031ft 116kts
24-Jul-16 18:42 33.936032 -117.498867 222 6049ft 114kts
24-Jul-16 18:43 33.923694 -117.532484 294 6015ft 116kts
24-Jul-16 18:44 33.942285 -117.564514 302 5595ft 116kts
24-Jul-16 18:45 33.960684 -117.597451 304 4964ft 120kts
24-Jul-16 18:46 33.979722 -117.629885 304 4366ft 119kts
24-Jul-16 18:47 33.998982 -117.660777 303 3998ft 108kts
24-Jul-16 18:48 34.013965 -117.688442 303 4025ft 93kts
24-Jul-16 18:49 34.028623 -117.714117 307 4016ft 92kts
24-Jul-16 18:50 34.044597 -117.738197 310 4007ft 92kts
24-Jul-16 18:51 34.061381 -117.761076 311 4008ft 90kts
24-Jul-16 18:52 34.077322 -117.784324 302 4016ft 90kts
24-Jul-16 18:53 34.080108 -117.814823 280 3818ft 91kts
24-Jul-16 18:54 34.080171 -117.844100 264 3845ft 91kts
24-Jul-16 18:55 34.079692 -117.874920 265 3593ft 96kts
24-Jul-16 18:56 34.082353 -117.905727 274 3169ft 94kts
24-Jul-16 18:57 34.084896 -117.937780 276 2377ft 95kts
24-Jul-16 18:58 34.085226 -117.968975 251 1687ft 89kts
24-Jul-16 18:59 34.072980 -117.991789 226 1480ft 82kts
24-Jul-16 19:00 34.060911 -118.014702 273 1343ft 83kts
24-Jul-16 19:01 34.071592 -118.036424 343 1370ft 73kts
24-Jul-16 19:02 34.090083 -118.024434 32 1250ft 74kts
24-Jul-16 19:03 34.107363 -118.014236 348 1060ft 62kts
24-Jul-16 19:04 34.101388 -118.026555 203 761ft 61kts
24-Jul-16 19:05 34.087810 -118.033836 203 288ft 36kts
24-Jul-16 19:06 34.085319 -118.034587 135 287ft 6kts

Navigation Log

Ident Type
Flight plan parsing failed, navigation log unavailable